createdAt,value
2022-11-06T00:00:55.619Z,8.20
2022-11-06T00:01:57.445Z,8.20
2022-11-06T00:03:00.551Z,8.20
2022-11-06T00:04:02.329Z,8.20
2022-11-06T00:05:22.702Z,8.20
2022-11-06T00:06:43.540Z,8.20
2022-11-06T00:07:46.681Z,8.20
2022-11-06T00:08:48.271Z,8.20
2022-11-06T00:09:49.875Z,8.20
2022-11-06T00:10:51.642Z,8.20
2022-11-06T00:11:53.374Z,8.20
2022-11-06T00:12:55.008Z,8.20
2022-11-06T00:13:56.963Z,8.20
2022-11-06T00:14:58.569Z,8.20
2022-11-06T00:16:05.084Z,8.20
2022-11-06T00:17:06.661Z,8.20
2022-11-06T00:18:08.285Z,8.10
2022-11-06T00:19:10.746Z,8.20
2022-11-06T00:20:12.381Z,8.20
2022-11-06T00:21:15.630Z,8.10
2022-11-06T00:22:17.219Z,8.10
2022-11-06T00:23:19.001Z,8.10
2022-11-06T00:24:20.610Z,8.10
2022-11-06T00:25:22.219Z,8.10
2022-11-06T00:26:25.578Z,8.00
2022-11-06T00:27:27.858Z,8.00
2022-11-06T00:28:29.482Z,8.00
2022-11-06T00:29:31.075Z,8.00
2022-11-06T00:30:32.646Z,8.10
2022-11-06T00:31:37.053Z,8.10
2022-11-06T00:32:39.658Z,8.10
2022-11-06T00:33:41.868Z,8.10
2022-11-06T00:34:43.466Z,8.10
2022-11-06T00:35:45.049Z,8.10
2022-11-06T00:36:46.655Z,8.10
2022-11-06T00:37:48.231Z,8.10
2022-11-06T00:38:54.795Z,8.10
2022-11-06T00:39:56.370Z,8.10
2022-11-06T00:41:01.468Z,8.10
2022-11-06T00:42:03.040Z,8.10
2022-11-06T00:43:04.670Z,8.10
2022-11-06T00:44:06.304Z,8.10
2022-11-06T00:45:08.643Z,8.10
2022-11-06T00:46:12.520Z,8.10
2022-11-06T00:47:14.112Z,8.10
2022-11-06T00:48:15.931Z,8.00
2022-11-06T00:49:17.619Z,8.10
2022-11-06T00:50:19.249Z,8.10
2022-11-06T00:51:30.391Z,8.10
2022-11-06T00:52:31.970Z,8.00
2022-11-06T00:53:33.927Z,8.10
2022-11-06T00:54:35.532Z,8.00
2022-11-06T00:55:37.108Z,8.00
2022-11-06T00:56:38.992Z,8.10
2022-11-06T00:57:40.615Z,8.10
2022-11-06T00:58:43.111Z,8.10
2022-11-06T00:59:44.784Z,8.10
2022-11-06T01:00:46.379Z,8.10
2022-11-06T01:01:48.145Z,8.10
2022-11-06T01:02:50.080Z,8.10
2022-11-06T01:03:54.617Z,8.00
2022-11-06T01:04:56.249Z,8.10
2022-11-06T01:06:11.677Z,8.00
2022-11-06T01:07:13.338Z,8.10
2022-11-06T01:08:15.327Z,8.10
2022-11-06T01:09:24.427Z,8.10
2022-11-06T01:10:26.065Z,8.10
2022-11-06T01:11:52.551Z,8.10
2022-11-06T01:12:55.509Z,8.10
2022-11-06T01:13:59.742Z,8.10
2022-11-06T01:15:01.824Z,8.10
2022-11-06T01:16:06.331Z,8.10
2022-11-06T01:17:08.322Z,8.10
2022-11-06T01:18:10.099Z,8.10
2022-11-06T01:19:13.424Z,8.00
2022-11-06T01:20:15.122Z,8.00
2022-11-06T01:21:20.559Z,8.00
2022-11-06T01:22:22.289Z,8.00
2022-11-06T01:23:23.907Z,8.00
2022-11-06T01:24:27.590Z,8.00
2022-11-06T01:25:29.291Z,8.00
2022-11-06T01:26:38.161Z,8.00
2022-11-06T01:27:41.072Z,8.00
2022-11-06T01:28:42.722Z,8.00
2022-11-06T01:29:44.765Z,8.00
2022-11-06T01:30:46.361Z,8.00
2022-11-06T01:31:50.456Z,7.90
2022-11-06T01:32:52.063Z,7.90
2022-11-06T01:33:55.347Z,7.90
2022-11-06T01:34:56.962Z,7.80
2022-11-06T01:35:58.569Z,7.80
2022-11-06T01:37:00.216Z,7.80
2022-11-06T01:38:01.798Z,7.80
2022-11-06T01:39:06.869Z,7.80
2022-11-06T01:40:09.053Z,7.80
2022-11-06T01:41:18.192Z,7.80
2022-11-06T01:42:21.149Z,7.80
2022-11-06T01:43:42.695Z,7.80
2022-11-06T01:44:44.284Z,7.80
2022-11-06T01:45:51.609Z,7.80
2022-11-06T01:46:53.511Z,7.80
2022-11-06T01:47:55.901Z,7.80
2022-11-06T01:49:10.267Z,7.70
2022-11-06T01:50:13.894Z,7.70
2022-11-06T01:51:15.773Z,7.70
2022-11-06T01:52:18.599Z,7.70
2022-11-06T01:53:20.942Z,7.70
2022-11-06T01:54:25.380Z,7.70
2022-11-06T01:55:31.755Z,7.60
2022-11-06T01:56:33.981Z,7.50
2022-11-06T01:57:35.677Z,7.50
2022-11-06T01:58:40.680Z,7.50
2022-11-06T01:59:45.169Z,7.50
2022-11-06T02:00:47.833Z,7.50
2022-11-06T02:01:49.764Z,7.50
2022-11-06T02:02:51.841Z,7.40
2022-11-06T02:04:18.079Z,7.40
2022-11-06T02:05:19.787Z,7.40
2022-11-06T02:06:21.861Z,7.40
2022-11-06T02:07:23.810Z,7.40
2022-11-06T02:08:26.052Z,7.40
2022-11-06T02:09:30.002Z,7.40
2022-11-06T02:10:32.762Z,7.40
2022-11-06T02:11:34.392Z,7.40
2022-11-06T02:12:44.391Z,7.40
2022-11-06T02:14:06.659Z,7.40
2022-11-06T02:15:38.978Z,7.50
2022-11-06T02:16:51.847Z,7.50
2022-11-06T02:18:21.196Z,7.40
2022-11-06T02:19:31.775Z,7.50
2022-11-06T02:20:39.203Z,7.50
2022-11-06T02:22:18.469Z,7.50
2022-11-06T02:23:56.738Z,7.50
2022-11-06T02:25:16.237Z,7.50
2022-11-06T02:26:32.987Z,7.50
2022-11-06T02:27:35.620Z,7.50
2022-11-06T02:28:45.226Z,7.50
2022-11-06T02:30:04.800Z,7.50
2022-11-06T02:31:12.298Z,7.50
2022-11-06T02:32:45.225Z,7.60
2022-11-06T02:33:55.617Z,7.60
2022-11-06T02:35:00.553Z,7.60
2022-11-06T02:36:12.132Z,7.60
2022-11-06T02:37:20.032Z,7.50
2022-11-06T02:38:32.875Z,7.60
2022-11-06T02:39:37.260Z,7.70
2022-11-06T02:40:46.871Z,7.70
2022-11-06T02:41:51.687Z,7.70
2022-11-06T02:42:55.745Z,7.80
2022-11-06T02:43:58.219Z,7.80
2022-11-06T02:45:01.802Z,7.80
2022-11-06T02:46:09.396Z,7.80
2022-11-06T02:47:14.795Z,7.90
2022-11-06T02:48:19.484Z,7.90
2022-11-06T02:49:31.541Z,7.90
2022-11-06T02:50:39.319Z,8.00
2022-11-06T02:51:46.631Z,8.00
2022-11-06T02:52:55.294Z,8.00
2022-11-06T02:54:01.178Z,8.10
2022-11-06T02:55:14.974Z,8.10
2022-11-06T02:56:22.408Z,8.10
2022-11-06T02:57:27.025Z,8.10
2022-11-06T02:58:39.080Z,8.00
2022-11-06T02:59:54.248Z,8.00
2022-11-06T03:01:04.478Z,7.90
2022-11-06T03:02:09.813Z,7.90
2022-11-06T03:03:25.713Z,7.90
2022-11-06T03:04:55.362Z,7.90
2022-11-06T03:06:23.015Z,7.90
2022-11-06T03:07:41.824Z,7.90
2022-11-06T03:09:02.501Z,7.90
2022-11-06T03:10:06.410Z,7.90
2022-11-06T03:11:27.738Z,8.00
2022-11-06T03:12:37.423Z,8.00
2022-11-06T03:13:51.410Z,8.00
2022-11-06T03:15:11.602Z,8.00
2022-11-06T03:16:23.504Z,8.00
2022-11-06T03:18:06.608Z,8.00
2022-11-06T03:19:12.632Z,7.90
2022-11-06T03:20:31.343Z,8.00
2022-11-06T03:21:52.625Z,7.90
2022-11-06T03:23:16.120Z,7.90
2022-11-06T03:24:30.892Z,7.90
2022-11-06T03:25:44.916Z,7.90
2022-11-06T03:26:51.652Z,8.00
2022-11-06T03:27:53.207Z,8.00
2022-11-06T03:29:00.193Z,8.00
2022-11-06T03:30:08.854Z,8.00
2022-11-06T03:31:16.060Z,8.00
2022-11-06T03:32:24.473Z,8.00
2022-11-06T03:33:52.799Z,8.10
2022-11-06T03:35:02.883Z,8.10
2022-11-06T03:36:04.644Z,8.10
2022-11-06T03:37:15.395Z,8.20
2022-11-06T03:38:19.691Z,8.20
2022-11-06T03:39:27.513Z,8.20
2022-11-06T03:40:34.253Z,8.10
2022-11-06T03:41:43.983Z,8.10
2022-11-06T03:42:46.892Z,8.10
2022-11-06T03:43:52.508Z,8.10
2022-11-06T03:45:04.976Z,8.10
2022-11-06T03:46:11.198Z,8.10
2022-11-06T03:47:22.364Z,8.20
2022-11-06T03:48:34.013Z,8.20
2022-11-06T03:49:50.598Z,8.20
2022-11-06T03:51:09.850Z,8.10
2022-11-06T03:52:16.331Z,8.10
2022-11-06T03:53:20.794Z,8.20
2022-11-06T03:54:28.959Z,8.10
2022-11-06T03:55:39.908Z,8.20
2022-11-06T03:57:05.333Z,8.20
2022-11-06T03:58:13.491Z,8.30
2022-11-06T03:59:19.153Z,8.30
2022-11-06T04:00:21.016Z,8.30
2022-11-06T04:01:28.219Z,8.30
2022-11-06T04:02:31.692Z,8.30
2022-11-06T04:03:43.157Z,8.30
2022-11-06T04:04:58.683Z,8.20
2022-11-06T04:06:24.110Z,8.20
2022-11-06T04:07:35.043Z,8.20
2022-11-06T04:08:57.024Z,8.20
2022-11-06T04:10:21.326Z,8.10
2022-11-06T04:11:44.881Z,8.10
2022-11-06T04:13:06.398Z,8.00
2022-11-06T04:14:09.181Z,8.00
2022-11-06T04:15:15.734Z,8.00
2022-11-06T04:16:17.989Z,7.90
2022-11-06T04:17:22.333Z,7.90
2022-11-06T04:18:23.976Z,7.90
2022-11-06T04:19:25.635Z,7.90
2022-11-06T04:20:56.307Z,7.90
2022-11-06T04:22:09.949Z,8.00
2022-11-06T04:23:25.047Z,7.90
2022-11-06T04:25:14.722Z,8.00
2022-11-06T04:26:37.886Z,8.00
2022-11-06T04:28:01.636Z,8.00
2022-11-06T04:29:29.354Z,8.00
2022-11-06T04:30:37.494Z,8.00
2022-11-06T04:31:58.638Z,8.00
2022-11-06T04:33:11.237Z,8.00
2022-11-06T04:34:26.991Z,8.00
2022-11-06T04:35:46.777Z,7.90
2022-11-06T04:37:05.863Z,7.90
2022-11-06T04:38:22.681Z,7.90
2022-11-06T04:39:37.058Z,7.90
2022-11-06T04:40:53.011Z,7.90
2022-11-06T04:42:17.579Z,7.90
2022-11-06T04:43:36.332Z,7.90
2022-11-06T04:44:46.947Z,7.90
2022-11-06T04:45:52.657Z,7.90
2022-11-06T04:47:06.971Z,7.90
2022-11-06T04:48:10.102Z,7.90
2022-11-06T04:49:14.177Z,7.90
2022-11-06T04:50:18.993Z,7.90
2022-11-06T04:51:25.476Z,7.90
2022-11-06T04:52:29.115Z,7.90
2022-11-06T04:53:32.184Z,7.90
2022-11-06T04:54:35.313Z,7.90
2022-11-06T04:55:48.729Z,7.90
2022-11-06T04:56:50.584Z,7.90
2022-11-06T04:57:52.222Z,7.80
2022-11-06T04:58:53.806Z,7.90
2022-11-06T04:59:56.853Z,7.90
2022-11-06T05:00:58.508Z,7.90
2022-11-06T05:02:00.317Z,7.90
2022-11-06T05:03:02.277Z,7.90
2022-11-06T05:04:04.003Z,7.90
2022-11-06T05:05:06.441Z,7.90
2022-11-06T05:06:08.768Z,7.90
2022-11-06T05:07:13.541Z,7.80
2022-11-06T05:08:17.334Z,7.80
2022-11-06T05:09:18.914Z,7.90
2022-11-06T05:10:20.486Z,7.90
2022-11-06T05:11:22.060Z,8.00
2022-11-06T05:12:23.779Z,8.00
2022-11-06T05:13:25.422Z,8.00
2022-11-06T05:14:27.089Z,8.00
2022-11-06T05:15:28.702Z,8.00
2022-11-06T05:16:30.569Z,8.10
2022-11-06T05:17:36.361Z,8.10
2022-11-06T05:18:38.338Z,8.10
2022-11-06T05:19:39.943Z,8.20
2022-11-06T05:20:41.559Z,8.20
2022-11-06T05:22:01.891Z,8.20
2022-11-06T05:23:03.620Z,8.20
2022-11-06T05:24:05.770Z,8.30
2022-11-06T05:25:07.975Z,8.20
2022-11-06T05:26:09.565Z,8.30
2022-11-06T05:27:11.172Z,8.30
2022-11-06T05:28:13.087Z,8.30
2022-11-06T05:29:15.191Z,8.30
2022-11-06T05:30:17.129Z,8.30
2022-11-06T05:31:18.758Z,8.30
2022-11-06T05:32:20.391Z,8.30
2022-11-06T05:33:21.980Z,8.40
2022-11-06T05:34:23.623Z,8.30
2022-11-06T05:35:25.246Z,8.40
2022-11-06T05:36:26.858Z,8.40
2022-11-06T05:37:28.443Z,8.40
2022-11-06T05:38:30.480Z,8.40
2022-11-06T05:39:32.163Z,8.40
2022-11-06T05:40:33.743Z,8.40
2022-11-06T05:41:35.363Z,8.40
2022-11-06T05:42:38.543Z,8.40
2022-11-06T05:43:40.150Z,8.40
2022-11-06T05:44:41.786Z,8.40
2022-11-06T05:45:43.393Z,8.50
2022-11-06T05:46:49.663Z,8.40
2022-11-06T05:47:51.745Z,8.40
2022-11-06T05:48:53.327Z,8.40
2022-11-06T05:49:55.035Z,8.40
2022-11-06T05:51:04.871Z,8.40
2022-11-06T05:52:06.676Z,8.40
2022-11-06T05:53:08.290Z,8.40
2022-11-06T05:54:09.917Z,8.40
2022-11-06T05:55:14.739Z,8.40
2022-11-06T05:56:16.563Z,8.40
2022-11-06T05:57:18.245Z,8.40
2022-11-06T05:58:20.028Z,8.40
2022-11-06T05:59:21.613Z,8.40
2022-11-06T06:00:23.262Z,8.40
2022-11-06T06:01:25.116Z,8.40
2022-11-06T06:02:26.907Z,8.40
2022-11-06T06:03:28.643Z,8.40
2022-11-06T06:04:30.408Z,8.40
2022-11-06T06:05:32.030Z,8.40
2022-11-06T06:06:34.017Z,8.40
2022-11-06T06:07:35.723Z,8.40
2022-11-06T06:08:37.360Z,8.40
2022-11-06T06:09:38.987Z,8.40
2022-11-06T06:10:42.142Z,8.40
2022-11-06T06:11:43.764Z,8.40
2022-11-06T06:12:45.424Z,8.40
2022-11-06T06:13:48.586Z,8.40
2022-11-06T06:14:50.705Z,8.40
2022-11-06T06:15:52.442Z,8.40
2022-11-06T06:16:54.040Z,8.40
2022-11-06T06:17:57.816Z,8.40
2022-11-06T06:18:59.501Z,8.40
2022-11-06T06:20:01.095Z,8.40
2022-11-06T06:21:02.787Z,8.40
2022-11-06T06:22:04.481Z,8.40
2022-11-06T06:23:09.447Z,8.40
2022-11-06T06:24:11.466Z,8.40
2022-11-06T06:25:22.368Z,8.30
2022-11-06T06:26:24.448Z,8.40
2022-11-06T06:27:27.521Z,8.40
2022-11-06T06:28:29.310Z,8.30
2022-11-06T06:29:30.949Z,8.30
2022-11-06T06:30:32.650Z,8.30
2022-11-06T06:31:34.532Z,8.30
2022-11-06T06:32:36.130Z,8.30
2022-11-06T06:33:37.711Z,8.30
2022-11-06T06:34:39.321Z,8.40
2022-11-06T06:35:40.955Z,8.30
2022-11-06T06:36:42.629Z,8.40
2022-11-06T06:37:51.517Z,8.40
2022-11-06T06:38:53.123Z,8.40
2022-11-06T06:39:54.712Z,8.40
2022-11-06T06:41:01.425Z,8.40
2022-11-06T06:42:03.174Z,8.30
2022-11-06T06:43:04.763Z,8.30
2022-11-06T06:44:06.507Z,8.30
2022-11-06T06:45:08.585Z,8.30
2022-11-06T06:46:10.360Z,8.30
2022-11-06T06:47:12.036Z,8.30
2022-11-06T06:48:13.922Z,8.30
2022-11-06T06:49:15.630Z,8.30
2022-11-06T06:50:17.636Z,8.30
2022-11-06T06:51:23.718Z,8.30
2022-11-06T06:52:25.873Z,8.30
2022-11-06T06:53:28.327Z,8.30
2022-11-06T06:54:29.935Z,8.30
2022-11-06T06:55:31.558Z,8.30
2022-11-06T06:56:33.237Z,8.30
2022-11-06T06:57:34.852Z,8.30
2022-11-06T06:58:36.513Z,8.30
2022-11-06T06:59:38.109Z,8.40
2022-11-06T07:00:39.913Z,8.40
2022-11-06T07:01:41.697Z,8.30
2022-11-06T07:02:43.393Z,8.30
2022-11-06T07:03:45.020Z,8.30
2022-11-06T07:04:46.639Z,8.40
2022-11-06T07:05:48.303Z,8.40
2022-11-06T07:06:50.149Z,8.40
2022-11-06T07:07:51.809Z,8.40
2022-11-06T07:08:56.605Z,8.40
2022-11-06T07:09:58.195Z,8.40
2022-11-06T07:11:00.628Z,8.40
2022-11-06T07:12:02.262Z,8.40
2022-11-06T07:13:05.394Z,8.40
2022-11-06T07:14:07.022Z,8.30
2022-11-06T07:15:09.365Z,8.40
2022-11-06T07:16:11.492Z,8.40
2022-11-06T07:17:13.150Z,8.40
2022-11-06T07:18:15.019Z,8.40
2022-11-06T07:19:17.257Z,8.40
2022-11-06T07:20:18.934Z,8.40
2022-11-06T07:21:20.510Z,8.40
2022-11-06T07:22:30.734Z,8.40
2022-11-06T07:23:36.009Z,8.40
2022-11-06T07:24:37.694Z,8.40
2022-11-06T07:25:39.319Z,8.40
2022-11-06T07:26:40.963Z,8.40
2022-11-06T07:27:42.555Z,8.40
2022-11-06T07:28:44.250Z,8.40
2022-11-06T07:29:45.919Z,8.30
2022-11-06T07:30:47.666Z,8.30
2022-11-06T07:31:49.281Z,8.30
2022-11-06T07:32:50.900Z,8.30
2022-11-06T07:33:52.719Z,8.30
2022-11-06T07:34:54.389Z,8.40
2022-11-06T07:35:56.061Z,8.40
2022-11-06T07:36:57.640Z,8.40
2022-11-06T07:37:59.224Z,8.40
2022-11-06T07:39:01.006Z,8.40
2022-11-06T07:40:02.866Z,8.40
2022-11-06T07:41:06.384Z,8.40
2022-11-06T07:42:08.020Z,8.30
2022-11-06T07:43:11.502Z,8.40
2022-11-06T07:44:13.223Z,8.30
2022-11-06T07:45:15.081Z,8.30
2022-11-06T07:46:16.703Z,8.40
2022-11-06T07:47:18.334Z,8.40
2022-11-06T07:48:19.907Z,8.50
2022-11-06T07:49:21.496Z,8.50
2022-11-06T07:50:23.174Z,8.50
2022-11-06T07:51:24.842Z,8.50
2022-11-06T07:52:26.540Z,8.50
2022-11-06T07:53:28.133Z,8.50
2022-11-06T07:54:29.740Z,8.50
2022-11-06T07:55:31.342Z,8.60
2022-11-06T07:56:33.035Z,8.60
2022-11-06T07:57:37.135Z,8.60
2022-11-06T07:58:38.892Z,8.60
2022-11-06T07:59:40.807Z,8.60
2022-11-06T08:00:47.655Z,8.70
2022-11-06T08:01:49.489Z,8.70
2022-11-06T08:02:54.166Z,8.70
2022-11-06T08:03:55.906Z,8.60
2022-11-06T08:04:57.867Z,8.70
2022-11-06T08:06:02.695Z,8.70
2022-11-06T08:07:04.458Z,8.70
2022-11-06T08:08:06.219Z,8.70
2022-11-06T08:09:08.733Z,8.80
2022-11-06T08:10:10.614Z,8.70
2022-11-06T08:11:13.401Z,8.80
2022-11-06T08:12:14.987Z,8.80
2022-11-06T08:13:18.125Z,8.80
2022-11-06T08:14:19.692Z,8.80
2022-11-06T08:15:21.344Z,8.80
2022-11-06T08:16:23.512Z,8.80
2022-11-06T08:17:25.109Z,8.80
2022-11-06T08:18:26.794Z,8.80
2022-11-06T08:19:28.365Z,8.90
2022-11-06T08:20:29.966Z,8.90
2022-11-06T08:21:31.540Z,8.90
2022-11-06T08:22:33.153Z,8.90
2022-11-06T08:23:36.030Z,8.90
2022-11-06T08:24:37.681Z,8.90
2022-11-06T08:25:39.800Z,8.90
2022-11-06T08:26:41.372Z,8.90
2022-11-06T08:27:43.149Z,8.90
2022-11-06T08:28:44.831Z,9.00
2022-11-06T08:29:46.451Z,9.00
2022-11-06T08:30:48.092Z,9.00
2022-11-06T08:31:49.721Z,9.00
2022-11-06T08:32:51.830Z,9.00
2022-11-06T08:33:53.583Z,9.10
2022-11-06T08:34:55.185Z,9.10
2022-11-06T08:35:56.808Z,9.10
2022-11-06T08:36:58.383Z,9.10
2022-11-06T08:38:00.377Z,9.20
2022-11-06T08:39:01.958Z,9.20
2022-11-06T08:40:04.445Z,9.20
2022-11-06T08:41:16.014Z,9.30
2022-11-06T08:42:17.627Z,9.30
2022-11-06T08:43:19.251Z,9.30
2022-11-06T08:44:20.838Z,9.30
2022-11-06T08:45:22.416Z,9.30
2022-11-06T08:46:24.038Z,9.30
2022-11-06T08:47:25.636Z,9.30
2022-11-06T08:48:27.405Z,9.40
2022-11-06T08:49:28.977Z,9.40
2022-11-06T08:50:37.176Z,9.40
2022-11-06T08:51:38.859Z,9.50
2022-11-06T08:52:40.459Z,9.50
2022-11-06T08:53:42.100Z,9.60
2022-11-06T08:54:43.830Z,9.70
2022-11-06T08:55:45.462Z,9.80
2022-11-06T08:56:47.078Z,9.80
2022-11-06T08:57:48.767Z,9.80
2022-11-06T08:58:55.375Z,9.80
2022-11-06T08:59:57.425Z,9.80
2022-11-06T09:00:59.147Z,9.80
2022-11-06T09:02:01.349Z,9.90
2022-11-06T09:03:06.206Z,9.90
2022-11-06T09:04:08.028Z,9.90
2022-11-06T09:05:10.225Z,10.00
2022-11-06T09:06:11.800Z,10.00
2022-11-06T09:07:13.566Z,10.00
2022-11-06T09:08:16.241Z,10.00
2022-11-06T09:09:17.942Z,10.00
2022-11-06T09:10:19.976Z,10.00
2022-11-06T09:11:21.653Z,10.00
2022-11-06T09:12:23.325Z,10.10
2022-11-06T09:13:24.993Z,10.10
2022-11-06T09:14:27.044Z,10.10
2022-11-06T09:15:28.658Z,10.00
2022-11-06T09:16:30.275Z,10.00
2022-11-06T09:17:31.893Z,10.00
2022-11-06T09:18:33.502Z,10.00
2022-11-06T09:19:35.109Z,10.00
2022-11-06T09:20:37.084Z,10.00
2022-11-06T09:21:40.324Z,10.00
2022-11-06T09:22:42.473Z,10.00
2022-11-06T09:23:45.990Z,10.10
2022-11-06T09:25:03.311Z,10.20
2022-11-06T09:26:05.941Z,10.20
2022-11-06T09:27:07.503Z,10.20
2022-11-06T09:28:09.134Z,10.30
2022-11-06T09:29:10.745Z,10.30
2022-11-06T09:30:15.649Z,10.40
2022-11-06T09:31:17.297Z,10.40
2022-11-06T09:32:18.943Z,10.50
2022-11-06T09:33:21.020Z,10.50
2022-11-06T09:34:22.822Z,10.50
2022-11-06T09:35:26.081Z,10.50
2022-11-06T09:36:27.728Z,10.50
2022-11-06T09:37:29.310Z,10.50
2022-11-06T09:38:31.183Z,10.40
2022-11-06T09:39:32.776Z,10.50
2022-11-06T09:40:36.930Z,10.50
2022-11-06T09:41:51.593Z,10.60
2022-11-06T09:43:02.171Z,10.70
2022-11-06T09:44:29.981Z,11.10
2022-11-06T09:45:33.736Z,11.90
2022-11-06T09:46:45.301Z,12.90
2022-11-06T09:47:57.822Z,13.60
2022-11-06T09:49:10.823Z,14.30
2022-11-06T09:50:19.009Z,15.10
2022-11-06T09:51:38.639Z,15.60
2022-11-06T09:52:51.948Z,16.10
2022-11-06T09:54:05.750Z,16.50
2022-11-06T09:55:23.531Z,17.10
2022-11-06T09:56:30.759Z,17.70
2022-11-06T09:57:39.467Z,18.00
2022-11-06T09:58:44.188Z,18.00
2022-11-06T09:59:46.912Z,18.30
2022-11-06T10:00:52.545Z,17.90
2022-11-06T10:02:01.379Z,17.30
2022-11-06T10:03:03.167Z,17.10
2022-11-06T10:04:05.729Z,17.10
2022-11-06T10:05:27.335Z,17.00
2022-11-06T10:06:29.549Z,17.30
2022-11-06T10:07:36.991Z,17.60
2022-11-06T10:08:41.998Z,18.00
2022-11-06T10:09:43.574Z,18.00
2022-11-06T10:11:16.882Z,18.00
2022-11-06T10:12:32.160Z,17.70
2022-11-06T10:13:53.057Z,17.60
2022-11-06T10:15:33.005Z,17.70
2022-11-06T10:17:19.921Z,17.60
2022-11-06T10:18:53.437Z,17.80
2022-11-06T10:20:11.011Z,18.20
2022-11-06T10:21:18.697Z,18.10
2022-11-06T10:22:40.756Z,18.10
2022-11-06T10:23:58.142Z,17.90
2022-11-06T10:25:31.712Z,18.30
2022-11-06T10:26:45.496Z,18.80
2022-11-06T10:28:01.899Z,19.40
2022-11-06T10:29:27.591Z,19.50
2022-11-06T10:31:01.352Z,19.70
2022-11-06T10:32:12.115Z,19.50
2022-11-06T10:33:22.125Z,19.40
2022-11-06T10:34:46.356Z,19.60
2022-11-06T10:35:54.043Z,19.40
2022-11-06T10:37:01.927Z,19.20
2022-11-06T10:38:27.270Z,19.10
2022-11-06T10:39:35.244Z,18.70
2022-11-06T10:40:37.927Z,18.60
2022-11-06T10:41:39.806Z,17.90
2022-11-06T10:42:42.937Z,17.80
2022-11-06T10:44:06.502Z,17.60
2022-11-06T10:45:14.724Z,17.80
2022-11-06T10:46:52.152Z,17.70
2022-11-06T10:48:03.452Z,17.50
2022-11-06T10:49:35.196Z,17.30
2022-11-06T10:50:58.669Z,17.50
2022-11-06T10:52:12.142Z,17.60
2022-11-06T10:53:26.286Z,17.60
2022-11-06T10:54:46.110Z,17.00
2022-11-06T10:56:10.626Z,16.70
2022-11-06T10:57:41.825Z,16.70
2022-11-06T10:58:43.565Z,16.50
2022-11-06T10:59:45.348Z,16.40
2022-11-06T11:00:47.599Z,16.30
2022-11-06T11:01:49.701Z,16.10
2022-11-06T11:02:54.896Z,16.00
2022-11-06T11:03:56.964Z,15.90
2022-11-06T11:04:58.821Z,15.80
2022-11-06T11:06:01.761Z,15.70
2022-11-06T11:07:20.334Z,15.80
2022-11-06T11:08:33.982Z,15.70
2022-11-06T11:09:35.737Z,15.60
2022-11-06T11:10:37.742Z,15.50
2022-11-06T11:11:49.496Z,15.50
2022-11-06T11:12:53.648Z,15.50
2022-11-06T11:14:00.968Z,15.50
2022-11-06T11:15:18.326Z,15.60
2022-11-06T11:16:40.222Z,15.70
2022-11-06T11:17:42.859Z,15.60
2022-11-06T11:18:45.757Z,15.50
2022-11-06T11:19:47.381Z,15.60
2022-11-06T11:21:04.288Z,15.50
2022-11-06T11:22:21.208Z,15.20
2022-11-06T11:23:25.627Z,15.20
2022-11-06T11:24:28.229Z,15.20
2022-11-06T11:25:29.847Z,15.20
2022-11-06T11:26:42.989Z,15.30
2022-11-06T11:27:45.793Z,15.40
2022-11-06T11:29:29.205Z,15.50
2022-11-06T11:30:30.965Z,15.70
2022-11-06T11:31:35.125Z,15.90
2022-11-06T11:32:36.820Z,16.10
2022-11-06T11:33:40.657Z,16.20
2022-11-06T11:34:55.373Z,16.10
2022-11-06T11:35:58.207Z,16.30
2022-11-06T11:37:08.219Z,16.50
2022-11-06T11:38:19.077Z,16.30
2022-11-06T11:39:24.105Z,16.40
2022-11-06T11:40:28.407Z,16.40
2022-11-06T11:41:30.058Z,16.50
2022-11-06T11:42:32.546Z,16.20
2022-11-06T11:43:34.716Z,16.30
2022-11-06T11:44:36.321Z,16.30
2022-11-06T11:45:37.966Z,16.20
2022-11-06T11:46:51.342Z,16.20
2022-11-06T11:48:08.606Z,16.50
2022-11-06T11:49:35.154Z,16.80
2022-11-06T11:50:36.755Z,17.00
2022-11-06T11:51:44.702Z,17.20
2022-11-06T11:52:48.065Z,17.30
2022-11-06T11:53:50.269Z,17.60
2022-11-06T11:54:53.972Z,17.80
2022-11-06T11:55:56.772Z,18.10
2022-11-06T11:57:05.655Z,18.40
2022-11-06T11:58:17.441Z,18.90
2022-11-06T11:59:31.656Z,19.10
2022-11-06T12:00:33.802Z,19.20
2022-11-06T12:01:40.784Z,19.10
2022-11-06T12:02:55.349Z,19.10
2022-11-06T12:03:57.362Z,19.00
2022-11-06T12:05:12.941Z,18.90
2022-11-06T12:06:17.553Z,19.00
2022-11-06T12:07:31.689Z,19.30
2022-11-06T12:08:33.562Z,19.50
2022-11-06T12:09:42.472Z,19.50
2022-11-06T12:10:44.598Z,19.50
2022-11-06T12:11:46.892Z,19.40
2022-11-06T12:12:51.209Z,19.50
2022-11-06T12:14:26.862Z,19.40
2022-11-06T12:15:44.497Z,19.10
2022-11-06T12:16:50.076Z,18.80
2022-11-06T12:17:53.453Z,18.50
2022-11-06T12:18:59.092Z,18.60
2022-11-06T12:20:04.671Z,18.30
2022-11-06T12:21:08.335Z,18.10
2022-11-06T12:22:28.561Z,18.10
2022-11-06T12:24:10.516Z,17.90
2022-11-06T12:25:17.755Z,17.20
2022-11-06T12:26:19.343Z,17.10
2022-11-06T12:27:29.003Z,17.00
2022-11-06T12:28:33.036Z,16.60
2022-11-06T12:30:06.853Z,16.60
2022-11-06T12:31:37.646Z,16.80
2022-11-06T12:33:03.530Z,17.00
2022-11-06T12:34:16.023Z,17.00
2022-11-06T12:35:26.354Z,16.80
2022-11-06T12:36:34.643Z,16.70
2022-11-06T12:37:51.550Z,16.70
2022-11-06T12:39:01.585Z,16.90
2022-11-06T12:40:13.292Z,17.10
2022-11-06T12:41:41.127Z,16.80
2022-11-06T12:42:56.605Z,16.80
2022-11-06T12:43:59.869Z,16.40
2022-11-06T12:45:01.696Z,16.10
2022-11-06T12:46:06.004Z,16.20
2022-11-06T12:47:26.725Z,16.20
2022-11-06T12:48:50.388Z,16.40
2022-11-06T12:50:23.992Z,16.60
2022-11-06T12:51:55.946Z,16.30
2022-11-06T12:53:06.474Z,16.20
2022-11-06T12:54:25.127Z,16.00
2022-11-06T12:55:43.551Z,15.90
2022-11-06T12:57:04.533Z,15.80
2022-11-06T12:58:15.500Z,15.80
2022-11-06T12:59:45.726Z,15.80
2022-11-06T13:00:59.108Z,15.90
2022-11-06T13:02:19.450Z,15.60
2022-11-06T13:03:52.052Z,15.50
2022-11-06T13:05:35.791Z,15.30
2022-11-06T13:07:14.964Z,15.00
2022-11-06T13:08:42.180Z,15.00
2022-11-06T13:10:18.240Z,15.20
2022-11-06T13:11:26.631Z,15.30
2022-11-06T13:12:41.817Z,15.50
2022-11-06T13:14:00.534Z,15.50
2022-11-06T13:15:08.198Z,15.30
2022-11-06T13:16:39.390Z,15.20
2022-11-06T13:18:16.128Z,15.10
2022-11-06T13:19:25.944Z,15.00
2022-11-06T13:20:40.939Z,15.10
2022-11-06T13:21:51.170Z,15.30
2022-11-06T13:23:29.080Z,15.40
2022-11-06T13:24:43.256Z,15.40
2022-11-06T13:25:56.731Z,15.30
2022-11-06T13:27:26.345Z,15.10
2022-11-06T13:28:47.746Z,15.00
2022-11-06T13:29:51.054Z,14.70
2022-11-06T13:30:54.010Z,14.50
2022-11-06T13:32:02.631Z,14.40
2022-11-06T13:33:10.434Z,14.40
2022-11-06T13:34:20.937Z,14.40
2022-11-06T13:35:23.767Z,14.20
2022-11-06T13:36:26.582Z,14.20
2022-11-06T13:37:48.853Z,14.30
2022-11-06T13:38:55.508Z,14.30
2022-11-06T13:40:06.589Z,14.20
2022-11-06T13:41:21.667Z,14.20
2022-11-06T13:42:45.105Z,14.20
2022-11-06T13:44:05.057Z,14.30
2022-11-06T13:45:09.151Z,14.40
2022-11-06T13:46:25.420Z,14.40
2022-11-06T13:47:35.627Z,14.40
2022-11-06T13:48:37.674Z,14.50
2022-11-06T13:50:11.940Z,14.80
2022-11-06T13:51:42.071Z,15.20
2022-11-06T13:53:04.007Z,16.00
2022-11-06T13:54:23.753Z,16.60
2022-11-06T13:55:35.365Z,16.60
2022-11-06T13:56:59.254Z,16.70
2022-11-06T13:58:19.288Z,16.80
2022-11-06T13:59:33.817Z,16.80
2022-11-06T14:00:48.093Z,16.60
2022-11-06T14:02:13.296Z,16.60
2022-11-06T14:03:28.215Z,16.30
2022-11-06T14:05:07.766Z,16.30
2022-11-06T14:06:21.722Z,16.40
2022-11-06T14:07:29.280Z,16.70
2022-11-06T14:08:53.958Z,16.60
2022-11-06T14:09:55.944Z,16.70
2022-11-06T14:11:10.951Z,16.60
2022-11-06T14:12:20.523Z,16.80
2022-11-06T14:13:32.097Z,16.50
2022-11-06T14:14:34.673Z,16.80
2022-11-06T14:15:39.583Z,16.70
2022-11-06T14:16:45.577Z,16.80
2022-11-06T14:17:59.588Z,16.70
2022-11-06T14:19:11.500Z,16.50
2022-11-06T14:20:28.366Z,16.30
2022-11-06T14:21:36.229Z,16.10
2022-11-06T14:22:38.615Z,15.90
2022-11-06T14:23:43.325Z,15.60
2022-11-06T14:24:45.030Z,15.10
2022-11-06T14:25:56.919Z,14.70
2022-11-06T14:27:00.914Z,14.60
2022-11-06T14:28:05.243Z,14.50
2022-11-06T14:29:28.759Z,14.30
2022-11-06T14:30:50.486Z,14.20
2022-11-06T14:32:00.235Z,14.20
2022-11-06T14:33:01.904Z,14.10
2022-11-06T14:34:03.596Z,14.10
2022-11-06T14:35:29.938Z,14.00
2022-11-06T14:36:35.605Z,13.90
2022-11-06T14:37:42.983Z,13.90
2022-11-06T14:38:45.187Z,13.80
2022-11-06T14:39:55.462Z,13.80
2022-11-06T14:40:58.227Z,13.70
2022-11-06T14:42:00.182Z,13.60
2022-11-06T14:43:11.786Z,13.50
2022-11-06T14:44:36.525Z,13.50
2022-11-06T14:45:38.246Z,13.50
2022-11-06T14:46:46.644Z,13.40
2022-11-06T14:47:53.060Z,13.40
2022-11-06T14:48:57.141Z,13.30
2022-11-06T14:50:03.392Z,13.30
2022-11-06T14:51:07.899Z,13.30
2022-11-06T14:52:13.030Z,13.30